Stockbridge, Georgia
Current Conditions -  °F | °C
As of 9:52 AM on Monday 24 Nov 2014 (Local Time) from KATL Reporting Station
Broken Clouds Broken Clouds  
Wind Chill: 19°   Ceiling: 1500
Heat Index: 19°   Visibility: 10mi
Dew Point: 15°   Wind: 9mph
Humidity: 78%   Direction: 220°SW
Pressure: 29.82"   Gusts: NA
Location:  33.54°N, 84.23°W
Report Text: KATL 241452Z 22008KT 10SM BKN015 BKN250 19/15 A2982 RMK AO2 SLP092 T01890150 53015
Loading
Personal Weather Stations






























Interactive Weather Map New forecast layout! Learn more

10-Day Weather Forecast

Advertisements
Track Severe Weather on mobile